sensor_id;sensor_type;location;lat;lon;timestamp;temperature;humidity
53045;DHT22;38930;52.766;6.884;2024-02-15T00:00:21;11.40;99.90
53045;DHT22;38930;52.766;6.884;2024-02-15T00:02:48;11.40;99.90
53045;DHT22;38930;52.766;6.884;2024-02-15T00:05:14;11.50;99.90
53045;DHT22;38930;52.766;6.884;2024-02-15T00:07:41;11.50;99.90
53045;DHT22;38930;52.766;6.884;2024-02-15T00:10:07;11.40;99.90
53045;DHT22;38930;52.766;6.884;2024-02-15T00:12:34;11.40;99.90
53045;DHT22;38930;52.766;6.884;2024-02-15T00:14:59;11.40;99.90
53045;DHT22;38930;52.766;6.884;2024-02-15T00:17:27;11.30;99.90
53045;DHT22;38930;52.766;6.884;2024-02-15T00:19:54;11.30;99.90
53045;DHT22;38930;52.766;6.884;2024-02-15T00:22:20;11.30;99.90
53045;DHT22;38930;52.766;6.884;2024-02-15T00:24:47;11.30;99.90
53045;DHT22;38930;52.766;6.884;2024-02-15T00:27:14;12.00;99.90
53045;DHT22;38930;52.766;6.884;2024-02-15T00:29:41;11.30;99.90
53045;DHT22;38930;52.766;6.884;2024-02-15T00:32:06;11.40;99.90
53045;DHT22;38930;52.766;6.884;2024-02-15T00:34:32;11.40;99.90
53045;DHT22;38930;52.766;6.884;2024-02-15T00:36:58;11.30;99.90
53045;DHT22;38930;52.766;6.884;2024-02-15T00:39:24;11.30;99.90
53045;DHT22;38930;52.766;6.884;2024-02-15T00:41:50;11.20;99.90
53045;DHT22;38930;52.766;6.884;2024-02-15T00:44:16;11.20;99.90
53045;DHT22;38930;52.766;6.884;2024-02-15T00:46:43;11.40;99.90
53045;DHT22;38930;52.766;6.884;2024-02-15T00:49:08;11.20;99.90
53045;DHT22;38930;52.766;6.884;2024-02-15T00:51:35;11.10;99.90
53045;DHT22;38930;52.766;6.884;2024-02-15T00:54:04;11.20;99.90
53045;DHT22;38930;52.766;6.884;2024-02-15T00:56:30;11.30;99.90
53045;DHT22;38930;52.766;6.884;2024-02-15T00:58:58;11.20;99.90
53045;DHT22;38930;52.766;6.884;2024-02-15T01:01:24;11.20;99.90
53045;DHT22;38930;52.766;6.884;2024-02-15T01:03:50;11.20;99.90
53045;DHT22;38930;52.766;6.884;2024-02-15T01:06:15;11.70;99.90
53045;DHT22;38930;52.766;6.884;2024-02-15T01:08:41;11.90;99.90
53045;DHT22;38930;52.766;6.884;2024-02-15T01:11:07;11.90;99.90
53045;DHT22;38930;52.766;6.884;2024-02-15T01:13:33;11.20;99.90
53045;DHT22;38930;52.766;6.884;2024-02-15T01:15:58;11.20;99.90
53045;DHT22;38930;52.766;6.884;2024-02-15T01:18:24;11.20;99.90
53045;DHT22;38930;52.766;6.884;2024-02-15T01:20:50;11.20;99.90
53045;DHT22;38930;52.766;6.884;2024-02-15T01:23:17;11.20;99.90
53045;DHT22;38930;52.766;6.884;2024-02-15T01:25:43;11.20;99.90
53045;DHT22;38930;52.766;6.884;2024-02-15T01:28:08;10.90;99.90
53045;DHT22;38930;52.766;6.884;2024-02-15T01:30:34;11.20;99.90
53045;DHT22;38930;52.766;6.884;2024-02-15T01:32:59;11.70;99.90
53045;DHT22;38930;52.766;6.884;2024-02-15T01:35:27;10.80;99.90
53045;DHT22;38930;52.766;6.884;2024-02-15T01:37:52;10.80;99.90
53045;DHT22;38930;52.766;6.884;2024-02-15T01:40:18;11.20;99.90
53045;DHT22;38930;52.766;6.884;2024-02-15T01:42:46;11.10;99.90
53045;DHT22;38930;52.766;6.884;2024-02-15T01:45:15;11.10;99.90
53045;DHT22;38930;52.766;6.884;2024-02-15T01:47:41;11.20;99.90
53045;DHT22;38930;52.766;6.884;2024-02-15T01:50:09;11.10;99.90
53045;DHT22;38930;52.766;6.884;2024-02-15T01:52:35;11.10;99.90
53045;DHT22;38930;52.766;6.884;2024-02-15T01:55:03;11.20;99.90
53045;DHT22;38930;52.766;6.884;2024-02-15T01:57:35;11.10;99.90
53045;DHT22;38930;52.766;6.884;2024-02-15T02:00:01;11.20;99.90
53045;DHT22;38930;52.766;6.884;2024-02-15T02:02:31;11.20;99.90
53045;DHT22;38930;52.766;6.884;2024-02-15T02:04:58;11.20;99.90
53045;DHT22;38930;52.766;6.884;2024-02-15T02:07:23;11.20;99.90
53045;DHT22;38930;52.766;6.884;2024-02-15T02:09:49;11.20;99.90
53045;DHT22;38930;52.766;6.884;2024-02-15T02:12:15;11.20;99.90
53045;DHT22;38930;52.766;6.884;2024-02-15T02:14:41;11.20;99.90
53045;DHT22;38930;52.766;6.884;2024-02-15T02:17:11;11.20;99.90
53045;DHT22;38930;52.766;6.884;2024-02-15T02:19:37;11.20;99.90
53045;DHT22;38930;52.766;6.884;2024-02-15T02:22:04;11.60;99.90
53045;DHT22;38930;52.766;6.884;2024-02-15T02:24:33;11.20;99.90
53045;DHT22;38930;52.766;6.884;2024-02-15T02:27:04;11.20;99.90
53045;DHT22;38930;52.766;6.884;2024-02-15T02:29:30;11.20;99.90
53045;DHT22;38930;52.766;6.884;2024-02-15T02:31:57;11.20;99.90
53045;DHT22;38930;52.766;6.884;2024-02-15T02:34:22;11.20;99.90
53045;DHT22;38930;52.766;6.884;2024-02-15T02:36:48;11.30;99.90
53045;DHT22;38930;52.766;6.884;2024-02-15T02:39:15;11.20;99.90
53045;DHT22;38930;52.766;6.884;2024-02-15T02:41:42;11.20;99.90
53045;DHT22;38930;52.766;6.884;2024-02-15T02:44:08;11.20;99.90
53045;DHT22;38930;52.766;6.884;2024-02-15T02:46:33;11.20;99.90
53045;DHT22;38930;52.766;6.884;2024-02-15T02:48:59;11.20;99.90
53045;DHT22;38930;52.766;6.884;2024-02-15T02:51:24;11.20;99.90
53045;DHT22;38930;52.766;6.884;2024-02-15T02:53:50;11.80;99.90
53045;DHT22;38930;52.766;6.884;2024-02-15T02:56:16;11.20;99.90
53045;DHT22;38930;52.766;6.884;2024-02-15T02:58:41;11.10;99.90
53045;DHT22;38930;52.766;6.884;2024-02-15T03:01:10;11.20;99.90
53045;DHT22;38930;52.766;6.884;2024-02-15T03:03:36;11.20;99.90
53045;DHT22;38930;52.766;6.884;2024-02-15T03:06:04;11.20;99.90
53045;DHT22;38930;52.766;6.884;2024-02-15T03:08:30;11.20;99.90
53045;DHT22;38930;52.766;6.884;2024-02-15T03:10:55;11.20;99.90
53045;DHT22;38930;52.766;6.884;2024-02-15T03:13:21;11.20;99.90
53045;DHT22;38930;52.766;6.884;2024-02-15T03:15:47;11.30;99.90
53045;DHT22;38930;52.766;6.884;2024-02-15T03:18:16;11.20;99.90
53045;DHT22;38930;52.766;6.884;2024-02-15T03:20:42;11.20;99.90
53045;DHT22;38930;52.766;6.884;2024-02-15T03:23:08;11.20;99.90
53045;DHT22;38930;52.766;6.884;2024-02-15T03:25:34;11.30;99.90
53045;DHT22;38930;52.766;6.884;2024-02-15T03:28:00;11.30;99.90
53045;DHT22;38930;52.766;6.884;2024-02-15T03:30:31;11.90;99.90
53045;DHT22;38930;52.766;6.884;2024-02-15T03:32:57;11.30;99.90
53045;DHT22;38930;52.766;6.884;2024-02-15T03:35:26;11.30;99.90
53045;DHT22;38930;52.766;6.884;2024-02-15T03:37:52;11.30;99.90
53045;DHT22;38930;52.766;6.884;2024-02-15T03:40:18;11.30;99.90
53045;DHT22;38930;52.766;6.884;2024-02-15T03:42:44;11.30;99.90
53045;DHT22;38930;52.766;6.884;2024-02-15T03:45:10;11.30;99.90
53045;DHT22;38930;52.766;6.884;2024-02-15T03:47:39;11.30;99.90
53045;DHT22;38930;52.766;6.884;2024-02-15T03:50:05;11.90;99.90
53045;DHT22;38930;52.766;6.884;2024-02-15T03:52:32;11.30;99.90
53045;DHT22;38930;52.766;6.884;2024-02-15T03:54:57;11.60;99.90
53045;DHT22;38930;52.766;6.884;2024-02-15T03:57:24;11.30;99.90
53045;DHT22;38930;52.766;6.884;2024-02-15T03:59:49;11.30;99.90
53045;DHT22;38930;52.766;6.884;2024-02-15T04:02:20;11.30;99.90
53045;DHT22;38930;52.766;6.884;2024-02-15T04:04:45;11.30;99.90
53045;DHT22;38930;52.766;6.884;2024-02-15T04:07:16;11.40;99.90
53045;DHT22;38930;52.766;6.884;2024-02-15T04:09:42;11.40;99.90
53045;DHT22;38930;52.766;6.884;2024-02-15T04:12:08;11.40;99.90
53045;DHT22;38930;52.766;6.884;2024-02-15T04:14:34;11.30;99.90
53045;DHT22;38930;52.766;6.884;2024-02-15T04:17:00;11.40;99.90
53045;DHT22;38930;52.766;6.884;2024-02-15T04:19:27;11.80;99.90
53045;DHT22;38930;52.766;6.884;2024-02-15T04:21:53;11.40;99.90
53045;DHT22;38930;52.766;6.884;2024-02-15T04:24:21;11.40;99.90
53045;DHT22;38930;52.766;6.884;2024-02-15T04:26:47;11.40;99.90
53045;DHT22;38930;52.766;6.884;2024-02-15T04:29:14;11.40;99.90
53045;DHT22;38930;52.766;6.884;2024-02-15T04:31:40;11.40;99.90
53045;DHT22;38930;52.766;6.884;2024-02-15T04:34:08;11.40;99.90
53045;DHT22;38930;52.766;6.884;2024-02-15T04:36:35;11.40;99.90
53045;DHT22;38930;52.766;6.884;2024-02-15T04:39:01;11.40;99.90
53045;DHT22;38930;52.766;6.884;2024-02-15T04:41:30;11.50;99.90
53045;DHT22;38930;52.766;6.884;2024-02-15T04:43:56;11.40;99.90
53045;DHT22;38930;52.766;6.884;2024-02-15T04:46:22;11.50;99.90
53045;DHT22;38930;52.766;6.884;2024-02-15T04:48:48;11.60;99.90
53045;DHT22;38930;52.766;6.884;2024-02-15T04:51:17;11.50;99.90
53045;DHT22;38930;52.766;6.884;2024-02-15T04:53:45;11.50;99.90
53045;DHT22;38930;52.766;6.884;2024-02-15T04:56:12;11.50;99.90
53045;DHT22;38930;52.766;6.884;2024-02-15T04:58:42;11.50;99.90
53045;DHT22;38930;52.766;6.884;2024-02-15T05:01:17;11.50;99.90
53045;DHT22;38930;52.766;6.884;2024-02-15T05:03:44;11.50;99.90
53045;DHT22;38930;52.766;6.884;2024-02-15T05:06:09;11.50;99.90
53045;DHT22;38930;52.766;6.884;2024-02-15T05:08:35;11.50;99.90
53045;DHT22;38930;52.766;6.884;2024-02-15T05:11:11;11.50;99.90
53045;DHT22;38930;52.766;6.884;2024-02-15T05:13:48;11.50;99.90
53045;DHT22;38930;52.766;6.884;2024-02-15T05:16:16;11.50;99.90
53045;DHT22;38930;52.766;6.884;2024-02-15T05:18:42;11.50;99.90
53045;DHT22;38930;52.766;6.884;2024-02-15T05:21:08;11.60;99.90
53045;DHT22;38930;52.766;6.884;2024-02-15T05:23:36;11.60;99.90
53045;DHT22;38930;52.766;6.884;2024-02-15T05:26:03;11.60;99.90
53045;DHT22;38930;52.766;6.884;2024-02-15T05:28:29;11.60;99.90
53045;DHT22;38930;52.766;6.884;2024-02-15T05:31:19;11.50;99.90
53045;DHT22;38930;52.766;6.884;2024-02-15T05:33:49;11.60;99.90
53045;DHT22;38930;52.766;6.884;2024-02-15T05:36:16;11.60;99.90
53045;DHT22;38930;52.766;6.884;2024-02-15T05:38:49;11.50;99.90
53045;DHT22;38930;52.766;6.884;2024-02-15T05:41:15;11.50;99.90
53045;DHT22;38930;52.766;6.884;2024-02-15T05:43:42;11.50;99.90
53045;DHT22;38930;52.766;6.884;2024-02-15T05:46:08;11.90;99.90
53045;DHT22;38930;52.766;6.884;2024-02-15T05:48:35;11.50;99.90
53045;DHT22;38930;52.766;6.884;2024-02-15T05:51:02;11.50;99.90
53045;DHT22;38930;52.766;6.884;2024-02-15T05:53:28;11.50;99.90
53045;DHT22;38930;52.766;6.884;2024-02-15T05:55:55;11.50;99.90
53045;DHT22;38930;52.766;6.884;2024-02-15T05:58:21;11.50;99.90
53045;DHT22;38930;52.766;6.884;2024-02-15T06:00:46;12.00;99.90
53045;DHT22;38930;52.766;6.884;2024-02-15T06:03:19;11.50;99.90
53045;DHT22;38930;52.766;6.884;2024-02-15T06:05:48;11.50;99.90
53045;DHT22;38930;52.766;6.884;2024-02-15T06:08:14;11.50;99.90
53045;DHT22;38930;52.766;6.884;2024-02-15T06:10:40;11.60;99.90
53045;DHT22;38930;52.766;6.884;2024-02-15T06:13:06;11.50;99.90
53045;DHT22;38930;52.766;6.884;2024-02-15T06:15:34;11.20;99.90
53045;DHT22;38930;52.766;6.884;2024-02-15T06:18:00;12.10;99.90
53045;DHT22;38930;52.766;6.884;2024-02-15T06:20:25;11.50;99.90
53045;DHT22;38930;52.766;6.884;2024-02-15T06:22:54;11.50;99.90
53045;DHT22;38930;52.766;6.884;2024-02-15T06:25:21;11.50;99.90
53045;DHT22;38930;52.766;6.884;2024-02-15T06:27:47;11.50;99.90
53045;DHT22;38930;52.766;6.884;2024-02-15T06:30:14;11.50;99.90
53045;DHT22;38930;52.766;6.884;2024-02-15T06:32:58;11.50;99.90
53045;DHT22;38930;52.766;6.884;2024-02-15T06:35:42;11.50;99.90
53045;DHT22;38930;52.766;6.884;2024-02-15T06:38:27;11.50;99.90
53045;DHT22;38930;52.766;6.884;2024-02-15T06:41:12;11.50;99.90
53045;DHT22;38930;52.766;6.884;2024-02-15T06:43:38;11.40;99.90
53045;DHT22;38930;52.766;6.884;2024-02-15T06:46:06;11.40;99.90
53045;DHT22;38930;52.766;6.884;2024-02-15T06:48:33;11.40;99.90
53045;DHT22;38930;52.766;6.884;2024-02-15T06:50:58;11.50;99.90
53045;DHT22;38930;52.766;6.884;2024-02-15T06:53:24;11.80;99.90
53045;DHT22;38930;52.766;6.884;2024-02-15T06:55:50;11.40;99.90
53045;DHT22;38930;52.766;6.884;2024-02-15T06:58:18;11.40;99.90
53045;DHT22;38930;52.766;6.884;2024-02-15T07:00:47;11.40;99.90
53045;DHT22;38930;52.766;6.884;2024-02-15T07:03:13;11.40;99.90
53045;DHT22;38930;52.766;6.884;2024-02-15T07:05:39;11.40;99.90
53045;DHT22;38930;52.766;6.884;2024-02-15T07:08:07;11.40;99.90
53045;DHT22;38930;52.766;6.884;2024-02-15T07:10:37;11.70;99.90
53045;DHT22;38930;52.766;6.884;2024-02-15T07:13:04;11.50;99.90
53045;DHT22;38930;52.766;6.884;2024-02-15T07:15:33;11.50;99.90
53045;DHT22;38930;52.766;6.884;2024-02-15T07:18:06;11.50;99.90
53045;DHT22;38930;52.766;6.884;2024-02-15T07:20:34;11.50;99.90
53045;DHT22;38930;52.766;6.884;2024-02-15T07:23:00;11.50;99.90
53045;DHT22;38930;52.766;6.884;2024-02-15T07:25:26;11.50;99.90
53045;DHT22;38930;52.766;6.884;2024-02-15T07:27:52;11.50;99.90
53045;DHT22;38930;52.766;6.884;2024-02-15T07:30:19;11.50;99.90
53045;DHT22;38930;52.766;6.884;2024-02-15T07:32:45;11.50;99.90
53045;DHT22;38930;52.766;6.884;2024-02-15T07:35:11;11.50;99.90
53045;DHT22;38930;52.766;6.884;2024-02-15T07:37:39;11.50;99.90
53045;DHT22;38930;52.766;6.884;2024-02-15T07:40:05;11.60;99.90
53045;DHT22;38930;52.766;6.884;2024-02-15T07:42:33;11.50;99.90
53045;DHT22;38930;52.766;6.884;2024-02-15T07:45:00;11.50;99.90
53045;DHT22;38930;52.766;6.884;2024-02-15T07:47:26;11.50;99.90
53045;DHT22;38930;52.766;6.884;2024-02-15T07:49:52;11.50;99.90
53045;DHT22;38930;52.766;6.884;2024-02-15T07:52:17;11.50;99.90
53045;DHT22;38930;52.766;6.884;2024-02-15T07:54:43;11.50;99.90
53045;DHT22;38930;52.766;6.884;2024-02-15T07:57:09;11.50;99.90
53045;DHT22;38930;52.766;6.884;2024-02-15T07:59:36;11.50;99.90
53045;DHT22;38930;52.766;6.884;2024-02-15T08:02:02;11.50;99.90
53045;DHT22;38930;52.766;6.884;2024-02-15T08:04:27;11.50;99.90
53045;DHT22;38930;52.766;6.884;2024-02-15T08:06:54;11.50;99.90
53045;DHT22;38930;52.766;6.884;2024-02-15T08:09:20;11.50;99.90
53045;DHT22;38930;52.766;6.884;2024-02-15T08:11:52;11.60;99.90
53045;DHT22;38930;52.766;6.884;2024-02-15T08:14:17;11.50;99.90
53045;DHT22;38930;52.766;6.884;2024-02-15T08:16:45;11.50;99.90
53045;DHT22;38930;52.766;6.884;2024-02-15T08:19:11;11.50;99.90
53045;DHT22;38930;52.766;6.884;2024-02-15T08:21:37;11.50;99.90
53045;DHT22;38930;52.766;6.884;2024-02-15T08:24:04;11.50;99.90
53045;DHT22;38930;52.766;6.884;2024-02-15T08:26:38;11.50;99.90
53045;DHT22;38930;52.766;6.884;2024-02-15T08:29:05;11.50;99.90
53045;DHT22;38930;52.766;6.884;2024-02-15T08:31:32;11.50;99.90
53045;DHT22;38930;52.766;6.884;2024-02-15T08:33:58;12.20;99.90
53045;DHT22;38930;52.766;6.884;2024-02-15T08:36:23;11.50;99.90
53045;DHT22;38930;52.766;6.884;2024-02-15T08:38:50;11.50;99.90
53045;DHT22;38930;52.766;6.884;2024-02-15T08:41:16;12.00;99.90
53045;DHT22;38930;52.766;6.884;2024-02-15T08:43:44;11.90;99.90
53045;DHT22;38930;52.766;6.884;2024-02-15T08:46:09;11.50;99.90
53045;DHT22;38930;52.766;6.884;2024-02-15T08:48:35;11.60;99.90
53045;DHT22;38930;52.766;6.884;2024-02-15T08:51:02;12.20;99.90
53045;DHT22;38930;52.766;6.884;2024-02-15T08:53:27;11.60;99.90
53045;DHT22;38930;52.766;6.884;2024-02-15T08:55:53;11.60;99.90
53045;DHT22;38930;52.766;6.884;2024-02-15T08:58:20;11.60;99.90
53045;DHT22;38930;52.766;6.884;2024-02-15T09:00:47;11.50;99.90
53045;DHT22;38930;52.766;6.884;2024-02-15T09:03:12;11.60;99.90
53045;DHT22;38930;52.766;6.884;2024-02-15T09:05:39;11.70;99.90
53045;DHT22;38930;52.766;6.884;2024-02-15T09:08:06;11.60;99.90
53045;DHT22;38930;52.766;6.884;2024-02-15T09:10:31;11.70;99.90
53045;DHT22;38930;52.766;6.884;2024-02-15T09:12:57;11.70;99.90
53045;DHT22;38930;52.766;6.884;2024-02-15T09:15:23;12.10;99.90
53045;DHT22;38930;52.766;6.884;2024-02-15T09:17:48;11.70;99.90
53045;DHT22;38930;52.766;6.884;2024-02-15T09:20:15;11.70;99.90
53045;DHT22;38930;52.766;6.884;2024-02-15T09:22:52;11.70;99.90
53045;DHT22;38930;52.766;6.884;2024-02-15T09:25:20;11.70;99.90
53045;DHT22;38930;52.766;6.884;2024-02-15T09:27:49;11.70;99.90
53045;DHT22;38930;52.766;6.884;2024-02-15T09:30:16;11.70;99.90
53045;DHT22;38930;52.766;6.884;2024-02-15T09:32:42;11.70;99.90
53045;DHT22;38930;52.766;6.884;2024-02-15T09:35:09;11.70;99.90
53045;DHT22;38930;52.766;6.884;2024-02-15T09:37:46;11.70;99.90
53045;DHT22;38930;52.766;6.884;2024-02-15T09:40:14;11.80;99.90
53045;DHT22;38930;52.766;6.884;2024-02-15T09:42:42;11.80;99.90
53045;DHT22;38930;52.766;6.884;2024-02-15T09:45:11;11.80;99.90
53045;DHT22;38930;52.766;6.884;2024-02-15T09:47:41;11.80;99.90
53045;DHT22;38930;52.766;6.884;2024-02-15T09:50:11;11.80;99.90
53045;DHT22;38930;52.766;6.884;2024-02-15T09:52:42;11.80;99.90
53045;DHT22;38930;52.766;6.884;2024-02-15T09:55:09;11.80;99.90
53045;DHT22;38930;52.766;6.884;2024-02-15T09:57:39;11.90;99.90
53045;DHT22;38930;52.766;6.884;2024-02-15T10:00:05;11.90;99.90
53045;DHT22;38930;52.766;6.884;2024-02-15T10:02:34;11.90;99.90
53045;DHT22;38930;52.766;6.884;2024-02-15T10:05:02;12.00;99.90
53045;DHT22;38930;52.766;6.884;2024-02-15T10:07:27;11.90;99.90
53045;DHT22;38930;52.766;6.884;2024-02-15T10:09:54;11.90;99.90
53045;DHT22;38930;52.766;6.884;2024-02-15T10:12:19;11.90;99.90
53045;DHT22;38930;52.766;6.884;2024-02-15T10:14:49;12.00;99.90
53045;DHT22;38930;52.766;6.884;2024-02-15T10:17:15;12.00;99.90
53045;DHT22;38930;52.766;6.884;2024-02-15T10:19:42;12.10;99.90
53045;DHT22;38930;52.766;6.884;2024-02-15T10:22:10;12.00;99.90
53045;DHT22;38930;52.766;6.884;2024-02-15T10:24:36;12.00;99.90
53045;DHT22;38930;52.766;6.884;2024-02-15T10:27:05;12.00;99.90
53045;DHT22;38930;52.766;6.884;2024-02-15T10:29:33;12.00;99.90
53045;DHT22;38930;52.766;6.884;2024-02-15T10:31:59;12.00;99.90
53045;DHT22;38930;52.766;6.884;2024-02-15T10:34:25;12.10;99.90
53045;DHT22;38930;52.766;6.884;2024-02-15T10:36:53;12.10;99.90
53045;DHT22;38930;52.766;6.884;2024-02-15T10:39:22;12.10;99.90
53045;DHT22;38930;52.766;6.884;2024-02-15T10:41:50;12.10;99.90
53045;DHT22;38930;52.766;6.884;2024-02-15T10:44:20;12.10;99.90
53045;DHT22;38930;52.766;6.884;2024-02-15T10:46:48;12.20;99.90
53045;DHT22;38930;52.766;6.884;2024-02-15T10:49:20;12.10;99.90
53045;DHT22;38930;52.766;6.884;2024-02-15T10:51:59;12.20;99.90
53045;DHT22;38930;52.766;6.884;2024-02-15T10:57:09;12.30;99.90
53045;DHT22;38930;52.766;6.884;2024-02-15T10:59:37;12.30;99.90
53045;DHT22;38930;52.766;6.884;2024-02-15T11:04:52;12.30;99.90
53045;DHT22;38930;52.766;6.884;2024-02-15T11:07:24;12.30;99.90
53045;DHT22;38930;52.766;6.884;2024-02-15T11:09:50;12.20;99.90
53045;DHT22;38930;52.766;6.884;2024-02-15T11:12:17;12.30;99.90
53045;DHT22;38930;52.766;6.884;2024-02-15T11:14:46;12.30;99.90
53045;DHT22;38930;52.766;6.884;2024-02-15T11:20:54;12.30;99.90
53045;DHT22;38930;52.766;6.884;2024-02-15T11:22:57;12.30;99.90
53045;DHT22;38930;52.766;6.884;2024-02-15T11:25:33;12.40;99.90
53045;DHT22;38930;52.766;6.884;2024-02-15T11:30:49;12.30;99.90
53045;DHT22;38930;52.766;6.884;2024-02-15T11:33:33;12.30;99.90
53045;DHT22;38930;52.766;6.884;2024-02-15T11:36:11;12.30;99.90
53045;DHT22;38930;52.766;6.884;2024-02-15T11:38:38;12.30;99.90
53045;DHT22;38930;52.766;6.884;2024-02-15T11:41:09;12.30;99.90
53045;DHT22;38930;52.766;6.884;2024-02-15T11:43:48;12.30;99.90
53045;DHT22;38930;52.766;6.884;2024-02-15T11:46:24;12.20;99.90
53045;DHT22;38930;52.766;6.884;2024-02-15T11:48:51;12.20;99.90
53045;DHT22;38930;52.766;6.884;2024-02-15T11:51:33;12.20;99.90
53045;DHT22;38930;52.766;6.884;2024-02-15T11:54:06;12.20;99.90
53045;DHT22;38930;52.766;6.884;2024-02-15T11:59:20;12.20;99.90
53045;DHT22;38930;52.766;6.884;2024-02-15T12:01:57;12.20;99.90
53045;DHT22;38930;52.766;6.884;2024-02-15T12:04:42;12.20;99.90
53045;DHT22;38930;52.766;6.884;2024-02-15T12:07:27;12.20;99.90
53045;DHT22;38930;52.766;6.884;2024-02-15T12:10:31;12.20;99.90
53045;DHT22;38930;52.766;6.884;2024-02-15T12:13:18;12.20;99.90
53045;DHT22;38930;52.766;6.884;2024-02-15T12:16:02;12.20;99.90
53045;DHT22;38930;52.766;6.884;2024-02-15T12:18:46;12.20;99.90
53045;DHT22;38930;52.766;6.884;2024-02-15T12:21:21;12.20;99.90
53045;DHT22;38930;52.766;6.884;2024-02-15T12:23:48;12.60;99.90
53045;DHT22;38930;52.766;6.884;2024-02-15T12:26:19;12.20;99.90
53045;DHT22;38930;52.766;6.884;2024-02-15T12:28:45;12.20;99.90
53045;DHT22;38930;52.766;6.884;2024-02-15T12:31:15;12.20;99.90
53045;DHT22;38930;52.766;6.884;2024-02-15T12:33:40;12.20;99.90
53045;DHT22;38930;52.766;6.884;2024-02-15T12:36:07;12.20;99.90
53045;DHT22;38930;52.766;6.884;2024-02-15T12:38:33;12.20;99.90
53045;DHT22;38930;52.766;6.884;2024-02-15T12:41:03;12.20;99.90
53045;DHT22;38930;52.766;6.884;2024-02-15T12:43:29;12.20;99.90
53045;DHT22;38930;52.766;6.884;2024-02-15T12:45:55;12.40;99.90
53045;DHT22;38930;52.766;6.884;2024-02-15T12:48:22;12.20;99.90
53045;DHT22;38930;52.766;6.884;2024-02-15T12:50:48;12.10;99.90
53045;DHT22;38930;52.766;6.884;2024-02-15T12:53:21;12.10;99.90
53045;DHT22;38930;52.766;6.884;2024-02-15T12:55:53;12.20;99.90
53045;DHT22;38930;52.766;6.884;2024-02-15T12:58:20;12.20;99.90
53045;DHT22;38930;52.766;6.884;2024-02-15T13:00:45;12.10;99.90
53045;DHT22;38930;52.766;6.884;2024-02-15T13:03:12;12.20;99.90
53045;DHT22;38930;52.766;6.884;2024-02-15T13:05:40;12.10;99.90
53045;DHT22;38930;52.766;6.884;2024-02-15T13:08:06;12.20;99.90
53045;DHT22;38930;52.766;6.884;2024-02-15T13:10:36;12.20;99.90
53045;DHT22;38930;52.766;6.884;2024-02-15T13:13:01;12.20;99.90
53045;DHT22;38930;52.766;6.884;2024-02-15T13:15:27;12.20;99.90
53045;DHT22;38930;52.766;6.884;2024-02-15T13:17:58;12.20;99.90
53045;DHT22;38930;52.766;6.884;2024-02-15T13:20:24;12.20;99.90
53045;DHT22;38930;52.766;6.884;2024-02-15T13:22:58;12.20;99.90
53045;DHT22;38930;52.766;6.884;2024-02-15T13:25:25;12.20;99.90
53045;DHT22;38930;52.766;6.884;2024-02-15T13:27:51;12.20;99.90
53045;DHT22;38930;52.766;6.884;2024-02-15T13:30:17;12.20;99.90
53045;DHT22;38930;52.766;6.884;2024-02-15T13:32:48;12.20;99.90
53045;DHT22;38930;52.766;6.884;2024-02-15T13:35:14;12.60;99.90
53045;DHT22;38930;52.766;6.884;2024-02-15T13:37:49;12.20;99.90
53045;DHT22;38930;52.766;6.884;2024-02-15T13:40:15;12.20;99.90
53045;DHT22;38930;52.766;6.884;2024-02-15T13:42:46;12.20;99.90
53045;DHT22;38930;52.766;6.884;2024-02-15T13:45:26;12.20;99.90
53045;DHT22;38930;52.766;6.884;2024-02-15T13:47:56;12.20;99.90
53045;DHT22;38930;52.766;6.884;2024-02-15T13:50:22;12.20;99.90
53045;DHT22;38930;52.766;6.884;2024-02-15T13:52:49;12.30;99.90
53045;DHT22;38930;52.766;6.884;2024-02-15T13:55:16;12.20;99.90
53045;DHT22;38930;52.766;6.884;2024-02-15T13:57:44;12.20;99.90
53045;DHT22;38930;52.766;6.884;2024-02-15T14:00:11;12.50;99.90
53045;DHT22;38930;52.766;6.884;2024-02-15T14:02:40;12.20;99.90
53045;DHT22;38930;52.766;6.884;2024-02-15T14:05:09;12.30;99.90
53045;DHT22;38930;52.766;6.884;2024-02-15T14:07:35;12.30;99.90
53045;DHT22;38930;52.766;6.884;2024-02-15T14:10:03;12.30;99.90
53045;DHT22;38930;52.766;6.884;2024-02-15T14:12:29;12.30;99.90
53045;DHT22;38930;52.766;6.884;2024-02-15T14:14:55;12.30;99.90
53045;DHT22;38930;52.766;6.884;2024-02-15T14:17:21;12.30;99.90
53045;DHT22;38930;52.766;6.884;2024-02-15T14:19:48;12.30;99.90
53045;DHT22;38930;52.766;6.884;2024-02-15T14:22:14;12.30;99.90
53045;DHT22;38930;52.766;6.884;2024-02-15T14:24:44;12.30;99.90
53045;DHT22;38930;52.766;6.884;2024-02-15T14:27:12;12.30;99.90
53045;DHT22;38930;52.766;6.884;2024-02-15T14:29:40;12.30;99.90
53045;DHT22;38930;52.766;6.884;2024-02-15T14:32:25;12.40;99.90
53045;DHT22;38930;52.766;6.884;2024-02-15T14:35:09;12.40;99.90
53045;DHT22;38930;52.766;6.884;2024-02-15T14:37:35;12.40;99.90
53045;DHT22;38930;52.766;6.884;2024-02-15T14:40:02;12.40;99.90
53045;DHT22;38930;52.766;6.884;2024-02-15T14:42:29;12.40;99.90
53045;DHT22;38930;52.766;6.884;2024-02-15T14:44:54;12.40;99.90
53045;DHT22;38930;52.766;6.884;2024-02-15T14:47:20;12.40;99.90
53045;DHT22;38930;52.766;6.884;2024-02-15T14:49:46;12.70;99.90
53045;DHT22;38930;52.766;6.884;2024-02-15T14:52:11;12.50;99.90
53045;DHT22;38930;52.766;6.884;2024-02-15T14:54:38;12.50;99.90
53045;DHT22;38930;52.766;6.884;2024-02-15T14:57:04;12.50;99.90
53045;DHT22;38930;52.766;6.884;2024-02-15T14:59:30;12.50;99.90
53045;DHT22;38930;52.766;6.884;2024-02-15T15:01:56;12.50;99.90
53045;DHT22;38930;52.766;6.884;2024-02-15T15:04:23;12.60;99.90
53045;DHT22;38930;52.766;6.884;2024-02-15T15:06:49;12.80;99.90
53045;DHT22;38930;52.766;6.884;2024-02-15T15:09:33;12.60;99.90
53045;DHT22;38930;52.766;6.884;2024-02-15T15:12:18;12.80;99.90
53045;DHT22;38930;52.766;6.884;2024-02-15T15:15:02;12.60;99.90
53045;DHT22;38930;52.766;6.884;2024-02-15T15:17:30;12.70;99.90
53045;DHT22;38930;52.766;6.884;2024-02-15T15:19:56;12.70;99.90
53045;DHT22;38930;52.766;6.884;2024-02-15T15:22:22;12.60;99.90
53045;DHT22;38930;52.766;6.884;2024-02-15T15:24:47;12.70;99.90
53045;DHT22;38930;52.766;6.884;2024-02-15T15:27:13;12.70;99.90
53045;DHT22;38930;52.766;6.884;2024-02-15T15:29:39;12.70;99.90
53045;DHT22;38930;52.766;6.884;2024-02-15T15:32:06;12.70;99.90
53045;DHT22;38930;52.766;6.884;2024-02-15T15:34:33;12.70;99.90
53045;DHT22;38930;52.766;6.884;2024-02-15T15:36:59;12.70;99.90
53045;DHT22;38930;52.766;6.884;2024-02-15T15:39:25;12.80;99.90
53045;DHT22;38930;52.766;6.884;2024-02-15T15:41:52;12.80;99.90
53045;DHT22;38930;52.766;6.884;2024-02-15T15:44:19;12.80;99.90
53045;DHT22;38930;52.766;6.884;2024-02-15T15:46:45;12.80;99.90
53045;DHT22;38930;52.766;6.884;2024-02-15T15:49:11;12.70;99.90